Time;durP1;ratioP1;P1;durP2;ratioP2;P2;SDS_P1;SDS_P2;PMS_P1;PMS_P2;Temp;Humidity;BMP_temperature;BMP_pressure;BME280_temperature;BME280_humidity;BME280_pressure;Samples;Min_cycle;Max_cycle;Signal;HPM_P1;HPM_P2
2022/08/19 00:01:29;;;;;;;10.07;8.15;;;23.20;99.90;;;;;;10358670;28;20488;-77
2022/08/19 00:06:52;;;;;;;8.23;7.30;;;23.10;99.90;;;;;;10332841;28;20245;-77
2022/08/19 00:12:13;;;;;;;8.65;7.60;;;23.10;1.00;;;;;;10303476;28;20604;-76
2022/08/19 00:17:35;;;;;;;8.57;7.68;;;22.90;17.00;;;;;;10317718;28;20190;-77
2022/08/19 00:22:57;;;;;;;10.55;8.68;;;23.00;1.00;;;;;;10317580;28;20266;-76
2022/08/19 00:28:20;;;;;;;11.80;9.63;;;22.90;30.30;;;;;;10332511;28;20208;-78
2022/08/19 00:33:42;;;;;;;11.70;7.45;;;22.90;99.90;;;;;;10395222;28;20249;-77
2022/08/19 00:39:05;;;;;;;9.38;7.13;;;22.80;99.90;;;;;;10397269;28;20462;-77
2022/08/19 00:44:28;;;;;;;10.38;7.28;;;22.80;99.90;;;;;;10397563;28;20275;-77
2022/08/19 00:49:56;;;;;;;10.90;7.80;;;22.70;99.90;;;;;;10379684;28;20193;-77
2022/08/19 00:55:24;;;;;;;11.52;7.90;;;22.50;1.00;;;;;;10349354;28;20536;-76
2022/08/19 01:00:47;;;;;;;8.57;7.20;;;22.50;1.00;;;;;;10325650;28;20276;-77
2022/08/19 01:06:08;;;;;;;9.93;7.32;;;22.50;45.60;;;;;;10301427;28;20198;-76
2022/08/19 01:11:33;;;;;;;8.38;7.50;;;22.40;8.40;;;;;;10330936;28;20205;-76
2022/08/19 01:16:56;;;;;;;7.80;7.00;;;22.30;2.60;;;;;;10314899;28;20198;-76
2022/08/19 01:22:23;;;;;;;7.88;6.57;;;22.30;1.00;;;;;;10315386;28;20216;-77
2022/08/19 01:27:50;;;;;;;10.25;7.60;;;22.30;1.00;;;;;;10315361;28;20198;-76
2022/08/19 01:33:12;;;;;;;7.35;6.65;;;22.30;1.00;;;;;;10385214;28;20240;-77
2022/08/19 01:38:38;;;;;;;7.75;6.95;;;22.30;1.00;;;;;;10395813;28;20200;-77
2022/08/19 01:44:03;;;;;;;9.38;6.57;;;22.30;1.00;;;;;;10381465;28;20197;-78
2022/08/19 01:49:26;;;;;;;8.23;7.40;;;22.30;1.00;;;;;;10399541;28;20199;-77
2022/08/19 01:54:47;;;;;;;7.43;6.65;;;22.20;1.00;;;;;;10360189;28;20225;-77
2022/08/19 02:00:12;;;;;;;8.52;7.55;;;22.20;1.00;;;;;;10348944;28;20488;-78
2022/08/19 02:05:33;;;;;;;9.02;6.85;;;22.20;47.20;;;;;;10307551;28;20253;-78
2022/08/19 02:10:55;;;;;;;7.63;6.63;;;22.10;1.00;;;;;;10322607;28;20191;-76
2022/08/19 02:16:18;;;;;;;8.20;6.60;;;22.10;1.00;;;;;;10337281;28;20245;-80
2022/08/19 02:21:39;;;;;;;8.25;7.45;;;22.10;1.00;;;;;;10322332;28;20265;-78
2022/08/19 02:27:01;;;;;;;8.10;6.82;;;22.10;1.00;;;;;;10321983;28;20195;-76
2022/08/19 02:32:22;;;;;;;11.60;7.03;;;22.00;1.00;;;;;;10378474;28;20287;-76
2022/08/19 02:43:27;;;;;;;8.50;7.18;;;22.10;1.00;;;;;;10384610;28;20202;-77
2022/08/19 02:48:50;;;;;;;8.57;6.93;;;22.10;5.10;;;;;;10387510;28;20197;-76
2022/08/19 02:54:12;;;;;;;7.88;6.80;;;22.10;1.00;;;;;;10362706;28;20222;-76
2022/08/19 02:59:34;;;;;;;7.22;6.53;;;22.10;1.00;;;;;;10358081;28;20233;-76
2022/08/19 03:04:55;;;;;;;7.90;7.05;;;22.10;99.90;;;;;;10340269;28;20274;-77
2022/08/19 03:10:17;;;;;;;8.98;7.90;;;22.20;99.90;;;;;;10320301;28;20261;-76
2022/08/19 03:15:44;;;;;;;10.38;8.10;;;22.20;99.90;;;;;;10319572;28;20222;-77
2022/08/19 03:21:06;;;;;;;8.52;7.68;;;22.20;99.90;;;;;;10305241;28;20209;-77
2022/08/19 03:26:28;;;;;;;7.47;6.78;;;22.10;99.90;;;;;;10319609;28;20438;-76
2022/08/19 03:31:51;;;;;;;9.95;7.70;;;22.10;99.90;;;;;;10367134;28;20228;-76
2022/08/19 03:37:13;;;;;;;8.15;7.30;;;22.10;99.90;;;;;;10385234;28;20211;-76
2022/08/19 03:42:34;;;;;;;7.72;6.82;;;22.10;99.90;;;;;;10399893;28;20189;-76
2022/08/19 03:47:56;;;;;;;7.95;7.13;;;22.10;99.90;;;;;;10399762;28;20247;-76
2022/08/19 03:53:17;;;;;;;8.25;6.82;;;22.10;99.90;;;;;;10367820;28;20269;-77
2022/08/19 03:58:40;;;;;;;7.93;6.68;;;22.20;99.90;;;;;;10358489;28;20194;-76
2022/08/19 04:04:03;;;;;;;8.98;8.10;;;22.20;99.90;;;;;;10345113;28;20220;-77
2022/08/19 04:09:25;;;;;;;10.20;8.45;;;22.30;99.90;;;;;;10333168;28;20211;-76
2022/08/19 04:14:46;;;;;;;9.43;8.40;;;22.30;99.90;;;;;;10317302;28;20237;-76
2022/08/19 04:20:08;;;;;;;9.48;7.82;;;22.30;99.90;;;;;;10317665;28;20194;-76
2022/08/19 04:25:36;;;;;;;9.07;7.32;;;22.40;99.90;;;;;;10317339;28;20194;-77
2022/08/19 04:30:58;;;;;;;9.48;7.80;;;22.40;99.90;;;;;;10351015;28;20237;-77
2022/08/19 04:36:23;;;;;;;9.88;7.63;;;22.50;99.90;;;;;;10397803;28;20216;-80
2022/08/19 04:47:25;;;;;;;12.95;10.35;;;22.70;99.90;;;;;;10397457;28;20189;-77
2022/08/19 04:52:49;;;;;;;12.43;9.70;;;22.80;99.90;;;;;;10373413;28;20277;-76
2022/08/19 04:58:11;;;;;;;14.50;9.90;;;22.90;99.90;;;;;;10341410;28;20225;-76
2022/08/19 05:03:33;;;;;;;11.88;9.57;;;23.00;99.90;;;;;;10332202;28;20199;-77
2022/08/19 05:08:55;;;;;;;9.82;8.88;;;23.10;99.90;;;;;;10301246;28;20195;-76
2022/08/19 05:14:17;;;;;;;10.07;8.27;;;23.10;99.90;;;;;;10315299;28;20289;-77
2022/08/19 05:25:20;;;;;;;17.52;9.65;;;23.40;99.90;;;;;;10314796;28;20290;-76
2022/08/19 05:30:43;;;;;;;10.95;8.75;;;23.50;99.90;;;;;;10344933;28;20531;-77
2022/08/19 05:36:07;;;;;;;11.35;9.50;;;23.60;99.90;;;;;;10378505;28;20232;-77
2022/08/19 05:41:30;;;;;;;14.45;10.50;;;23.70;99.90;;;;;;10381135;28;20189;-77
2022/08/19 05:46:52;;;;;;;15.32;10.48;;;23.80;99.90;;;;;;10378366;28;20508;-77
2022/08/19 05:52:15;;;;;;;16.40;10.32;;;23.80;99.90;;;;;;10381030;28;20202;-78
2022/08/19 05:57:37;;;;;;;10.30;9.18;;;23.90;99.90;;;;;;10349825;28;20206;-76
2022/08/19 06:03:02;;;;;;;15.05;11.13;;;24.10;99.90;;;;;;10335682;28;20274;-77
2022/08/19 06:08:23;;;;;;;15.95;10.15;;;24.30;99.90;;;;;;10314469;28;20269;-77
2022/08/19 06:13:50;;;;;;;14.15;10.38;;;24.50;99.90;;;;;;10314367;28;20222;-77
2022/08/19 06:19:15;;;;;;;18.42;10.30;;;24.60;99.90;;;;;;10313457;28;20261;-77
2022/08/19 06:24:37;;;;;;;13.38;10.10;;;25.00;99.90;;;;;;10314025;28;20195;-76
2022/08/19 06:29:58;;;;;;;11.10;8.65;;;25.10;99.90;;;;;;10331777;28;20280;-76
2022/08/19 06:35:19;;;;;;;15.05;9.73;;;25.30;99.90;;;;;;10366883;28;20295;-78
2022/08/19 06:40:41;;;;;;;10.70;9.20;;;25.90;99.90;;;;;;10401743;28;20224;-77
2022/08/19 06:46:11;;;;;;;12.80;9.93;;;26.40;98.80;;;;;;10384359;28;20193;-77
2022/08/19 06:51:34;;;;;;;13.60;9.25;;;26.90;96.30;;;;;;10382876;28;20189;-77
2022/08/19 06:57:02;;;;;;;13.23;9.25;;;27.00;96.40;;;;;;10351121;28;20229;-77
2022/08/19 07:02:26;;;;;;;11.13;9.63;;;27.70;93.20;;;;;;10346261;28;20236;-77
2022/08/19 07:07:47;;;;;;;12.30;9.23;;;28.10;91.70;;;;;;10320109;28;20205;-77
2022/08/19 07:13:08;;;;;;;13.85;9.77;;;28.60;88.50;;;;;;10319150;28;20293;-77
2022/08/19 07:18:29;;;;;;;15.65;9.02;;;28.00;90.00;;;;;;10334707;28;20204;-77
2022/08/19 07:23:51;;;;;;;11.82;9.35;;;27.50;91.90;;;;;;10318199;28;20198;-77
2022/08/19 07:29:12;;;;;;;11.30;8.80;;;27.60;92.40;;;;;;10310311;28;20201;-77
2022/08/19 07:34:36;;;;;;;18.17;8.50;;;28.00;91.80;;;;;;10382185;28;20228;-77
2022/08/19 07:39:58;;;;;;;13.80;7.97;;;28.80;88.90;;;;;;10399562;28;20264;-77
2022/08/19 07:45:19;;;;;;;12.43;8.85;;;29.60;83.70;;;;;;10381239;28;20232;-78
2022/08/19 07:50:40;;;;;;;12.35;8.10;;;30.10;74.40;;;;;;10399138;28;20268;-78
2022/08/19 07:56:03;;;;;;;10.23;8.27;;;30.20;68.30;;;;;;10327984;28;20232;-78
2022/08/19 08:01:27;;;;;;;15.30;7.43;;;30.30;66.90;;;;;;10358234;28;20213;-77
2022/08/19 08:12:40;;;;;;;8.63;6.80;;;30.80;59.10;;;;;;10317658;28;20190;-78
2022/08/19 08:18:02;;;;;;;11.27;7.60;;;30.90;57.00;;;;;;10317444;28;20199;-79
2022/08/19 08:23:28;;;;;;;12.15;7.45;;;31.50;52.00;;;;;;10302525;28;20423;-78
2022/08/19 08:28:49;;;;;;;19.13;7.25;;;32.10;46.40;;;;;;10317791;28;20489;-78
2022/08/19 08:34:14;;;;;;;14.85;6.88;;;32.70;40.20;;;;;;10316370;28;20312;-78
2022/08/19 08:39:35;;;;;;;9.70;7.00;;;32.90;36.80;;;;;;10316560;28;20404;-78
2022/08/19 08:45:01;;;;;;;10.15;6.75;;;33.50;34.40;;;;;;10316207;28;20245;-77
2022/08/19 08:50:35;;;;;;;10.38;6.32;;;33.80;29.70;;;;;;10315795;28;20485;-77
2022/08/19 08:55:57;;;;;;;12.38;6.50;;;34.40;28.40;;;;;;10337656;28;20309;-77
2022/08/19 09:01:19;;;;;;;11.18;6.63;;;34.80;24.00;;;;;;10340781;28;20198;-78
2022/08/19 09:06:48;;;;;;;13.77;6.65;;;35.20;22.20;;;;;;10321616;28;20202;-78
2022/08/19 09:12:38;;;;;;;8.35;5.28;;;35.40;20.70;;;;;;10315584;28;20194;-82
2022/08/19 09:18:04;;;;;;;12.07;6.00;;;35.50;18.90;;;;;;10315124;28;20195;-80
2022/08/19 09:23:25;;;;;;;7.68;5.30;;;35.40;18.20;;;;;;10315382;28;20198;-79
2022/08/19 09:28:49;;;;;;;9.70;5.40;;;35.60;17.50;;;;;;10314821;28;20187;-80
2022/08/19 09:34:11;;;;;;;10.13;6.78;;;35.60;17.00;;;;;;10259948;29;20479;-77
2022/08/19 09:39:32;;;;;;;12.88;5.63;;;35.60;15.60;;;;;;10274966;29;20211;-77
2022/08/19 09:44:53;;;;;;;8.68;5.70;;;35.50;16.00;;;;;;10274906;29;20199;-78
2022/08/19 09:50:15;;;;;;;13.60;6.93;;;34.80;15.70;;;;;;10274719;29;20275;-78
2022/08/19 09:55:42;;;;;;;8.85;5.88;;;34.40;17.30;;;;;;10293352;28;20226;-78
2022/08/19 10:01:05;;;;;;;8.68;6.05;;;35.40;16.50;;;;;;10313558;28;20206;-78
2022/08/19 10:06:33;;;;;;;12.77;6.18;;;35.90;14.40;;;;;;10280713;28;20348;-78
2022/08/19 10:11:54;;;;;;;10.07;5.65;;;35.60;15.50;;;;;;10279108;28;20195;-79
2022/08/19 10:17:16;;;;;;;11.55;5.28;;;36.10;14.30;;;;;;10281858;28;20264;-77
2022/08/19 10:22:39;;;;;;;9.85;5.47;;;36.30;13.30;;;;;;10296807;28;20229;-77
2022/08/19 10:28:00;;;;;;;8.73;5.60;;;35.50;13.30;;;;;;10296660;28;20203;-78
2022/08/19 10:33:22;;;;;;;9.88;5.22;;;36.20;12.80;;;;;;10385009;28;20302;-79
2022/08/19 10:38:49;;;;;;;11.15;5.60;;;36.70;11.90;;;;;;10402400;28;20220;-78
2022/08/19 10:44:15;;;;;;;13.02;6.35;;;36.60;12.00;;;;;;10370732;28;20205;-81
2022/08/19 10:52:33;;;;;;;11.73;5.10;;;36.50;11.10;;;;;;10384266;28;20205;-78
2022/08/19 11:01:01;;;;;;;10.40;5.90;;;36.00;11.10;;;;;;10329464;28;20377;-78
2022/08/19 11:06:25;;;;;;;9.15;5.43;;;36.20;11.90;;;;;;10327896;28;20269;-77
2022/08/19 11:11:47;;;;;;;7.60;5.53;;;36.50;10.60;;;;;;10305338;28;20548;-78
2022/08/19 11:17:09;;;;;;;10.35;5.78;;;35.80;11.40;;;;;;10319937;28;20225;-78
2022/08/19 11:22:31;;;;;;;16.50;6.07;;;34.80;12.50;;;;;;10318656;28;20194;-77
2022/08/19 11:27:54;;;;;;;15.02;5.50;;;33.90;13.50;;;;;;10304899;28;20408;-78
2022/08/19 11:33:15;;;;;;;8.27;5.25;;;34.00;13.00;;;;;;10390191;28;20244;-77
2022/08/19 11:38:36;;;;;;;7.38;5.07;;;33.70;13.60;;;;;;10382743;28;20209;-77
2022/08/19 11:43:57;;;;;;;14.40;5.90;;;33.60;13.50;;;;;;10399607;28;20197;-77
2022/08/19 11:49:20;;;;;;;27.65;6.53;;;33.40;14.70;;;;;;10382250;28;20225;-77
2022/08/19 11:54:42;;;;;;;14.27;5.88;;;33.50;15.20;;;;;;10356473;28;20528;-78
2022/08/19 12:00:06;;;;;;;13.57;5.60;;;33.30;15.00;;;;;;10358662;28;20264;-77
2022/08/19 12:05:28;;;;;;;7.63;5.60;;;32.60;16.10;;;;;;10333599;28;20229;-78
2022/08/19 12:10:49;;;;;;;13.75;5.30;;;32.60;15.70;;;;;;10317031;28;20262;-77
2022/08/19 12:16:14;;;;;;;13.73;6.03;;;32.40;15.90;;;;;;10317596;28;20226;-77
2022/08/19 12:21:36;;;;;;;10.73;5.25;;;32.20;16.50;;;;;;10317204;28;20190;-77
2022/08/19 12:27:01;;;;;;;11.15;5.78;;;32.50;15.70;;;;;;10317061;28;20198;-78
2022/08/19 12:32:24;;;;;;;15.25;5.63;;;33.00;15.20;;;;;;10367404;28;20303;-77
2022/08/19 12:37:46;;;;;;;5.53;4.90;;;33.70;14.40;;;;;;10397946;28;20248;-78
2022/08/19 12:43:08;;;;;;;9.07;5.45;;;34.10;13.50;;;;;;10397492;28;20189;-78
2022/08/19 12:48:30;;;;;;;12.20;5.63;;;34.50;13.20;;;;;;10397383;28;20193;-78
2022/08/19 12:53:51;;;;;;;11.38;6.15;;;34.70;12.60;;;;;;10329847;28;20249;-81
2022/08/19 12:59:15;;;;;;;10.55;5.05;;;34.90;12.30;;;;;;10356427;28;20202;-77
2022/08/19 13:04:40;;;;;;;12.30;5.43;;;34.90;12.00;;;;;;10338165;28;20194;-78
2022/08/19 13:10:03;;;;;;;9.23;5.43;;;34.80;11.90;;;;;;10315587;28;20202;-78
2022/08/19 13:15:24;;;;;;;13.80;5.55;;;34.50;12.50;;;;;;10330471;28;20245;-81
2022/08/19 13:20:45;;;;;;;14.25;5.80;;;34.40;12.70;;;;;;10315402;28;20258;-79
2022/08/19 13:26:08;;;;;;;11.63;6.20;;;34.40;13.10;;;;;;10315127;28;20198;-78
2022/08/19 13:37:13;;;;;;;13.85;5.45;;;34.30;13.30;;;;;;10378080;28;20232;-78
2022/08/19 13:42:34;;;;;;;9.43;6.00;;;33.80;13.80;;;;;;10378168;28;20224;-80
2022/08/19 13:47:57;;;;;;;18.15;5.47;;;33.70;14.40;;;;;;10409090;28;20189;-79
2022/08/19 13:53:19;;;;;;;10.23;7.03;;;33.40;14.80;;;;;;10377045;28;20281;-81
2022/08/19 13:58:41;;;;;;;10.48;6.28;;;33.40;14.80;;;;;;10368503;28;20204;-79
2022/08/19 14:04:03;;;;;;;16.02;6.35;;;33.20;15.40;;;;;;10354719;28;20214;-78
2022/08/19 14:09:25;;;;;;;8.07;6.00;;;33.20;15.90;;;;;;10326223;28;20193;-79
2022/08/19 14:14:46;;;;;;;9.85;6.40;;;33.30;15.60;;;;;;10312322;28;20229;-77
2022/08/19 14:20:10;;;;;;;15.63;6.45;;;33.30;16.20;;;;;;10327337;28;20214;-78
2022/08/19 14:25:33;;;;;;;9.98;6.30;;;32.90;16.60;;;;;;10312396;28;20207;-78
2022/08/19 14:30:55;;;;;;;12.38;6.18;;;32.70;17.20;;;;;;10359165;28;20232;-78
2022/08/19 14:36:18;;;;;;;16.08;6.80;;;33.00;17.40;;;;;;10390149;28;20234;-81
2022/08/19 14:41:41;;;;;;;13.00;6.60;;;32.80;17.40;;;;;;10393090;28;20195;-78
2022/08/19 14:47:03;;;;;;;12.43;7.50;;;32.40;17.60;;;;;;10407659;28;20268;-78
2022/08/19 14:52:25;;;;;;;9.50;7.15;;;32.30;18.10;;;;;;10389786;28;20195;-77
2022/08/19 14:57:46;;;;;;;7.90;6.25;;;32.10;18.50;;;;;;10357492;28;20253;-78
2022/08/19 15:03:07;;;;;;;11.20;6.90;;;32.00;18.60;;;;;;10353718;28;20190;-78
2022/08/19 15:08:31;;;;;;;16.48;6.63;;;31.90;19.20;;;;;;10305467;28;20210;-77
2022/08/19 15:13:52;;;;;;;12.10;6.10;;;31.90;19.50;;;;;;10320023;28;20237;-77
2022/08/19 15:19:14;;;;;;;13.50;6.15;;;31.90;19.60;;;;;;10334885;28;20265;-82
2022/08/19 15:24:37;;;;;;;9.52;6.65;;;31.80;19.50;;;;;;10319656;28;20198;-78
2022/08/19 15:29:59;;;;;;;12.15;6.85;;;31.80;19.30;;;;;;10352706;28;20233;-77
2022/08/19 15:35:22;;;;;;;12.70;6.93;;;31.70;19.50;;;;;;10385400;28;20221;-78
2022/08/19 15:40:44;;;;;;;9.10;6.53;;;31.60;20.00;;;;;;10400099;28;20518;-79
2022/08/19 15:46:05;;;;;;;13.77;6.47;;;31.60;19.90;;;;;;10384929;28;20221;-77
2022/08/19 15:51:29;;;;;;;9.27;6.65;;;31.60;20.40;;;;;;10379734;28;20205;-78
2022/08/19 16:08:11;;;;;;;12.10;6.57;;;31.50;20.00;;;;;;10317635;28;20355;-78
2022/08/19 16:13:33;;;;;;;21.75;9.25;;;31.40;20.80;;;;;;10317157;28;20203;-78
2022/08/19 16:18:55;;;;;;;12.50;6.40;;;31.30;20.70;;;;;;10317599;28;20191;-80
2022/08/19 16:24:21;;;;;;;14.48;8.63;;;31.20;20.40;;;;;;10332608;28;20209;-80
2022/08/19 16:29:42;;;;;;;11.68;7.25;;;31.10;21.30;;;;;;10329789;28;20208;-81
2022/08/19 16:35:05;;;;;;;14.93;6.97;;;31.00;21.40;;;;;;10397623;28;20225;-78
2022/08/19 16:40:26;;;;;;;14.82;6.68;;;30.90;22.00;;;;;;10397719;28;20189;-79
2022/08/19 16:45:51;;;;;;;13.02;8.13;;;30.80;22.40;;;;;;10397377;28;20204;-78
2022/08/19 16:51:14;;;;;;;16.70;8.07;;;30.60;23.00;;;;;;10397350;28;20200;-78
2022/08/19 16:56:35;;;;;;;10.73;6.95;;;30.50;23.60;;;;;;10339141;28;20317;-78
2022/08/19 17:01:57;;;;;;;10.45;7.53;;;30.50;24.00;;;;;;10356027;28;20488;-79
2022/08/19 17:07:18;;;;;;;12.98;7.22;;;30.30;24.50;;;;;;10316686;28;20204;-79
2022/08/19 17:12:40;;;;;;;10.00;6.35;;;30.20;25.00;;;;;;10301555;28;20381;-78
2022/08/19 17:18:03;;;;;;;13.57;6.63;;;30.10;25.70;;;;;;10300092;28;20221;-78
2022/08/19 17:23:25;;;;;;;13.52;7.13;;;30.10;26.20;;;;;;10301240;28;20266;-78
2022/08/19 17:28:50;;;;;;;15.93;6.68;;;29.90;27.30;;;;;;10315468;28;20473;-79
2022/08/19 17:34:11;;;;;;;11.98;6.88;;;29.80;27.40;;;;;;10378347;28;20237;-79
2022/08/19 17:39:33;;;;;;;11.40;7.53;;;29.70;28.10;;;;;;10378408;28;20280;-79
2022/08/19 17:44:58;;;;;;;10.90;7.53;;;29.60;28.90;;;;;;10367401;28;20544;-78
2022/08/19 17:50:20;;;;;;;11.15;6.50;;;29.40;29.90;;;;;;10395889;28;20194;-79
2022/08/19 17:55:42;;;;;;;17.88;8.43;;;29.40;30.70;;;;;;10344774;28;20225;-78
2022/08/19 18:01:03;;;;;;;16.70;7.05;;;29.30;31.80;;;;;;10353587;28;20217;-79
2022/08/19 18:06:25;;;;;;;15.52;7.25;;;29.10;32.80;;;;;;10322101;28;20252;-78
2022/08/19 18:11:46;;;;;;;11.23;6.82;;;29.10;34.20;;;;;;10314449;28;20199;-77
2022/08/19 18:17:16;;;;;;;10.82;6.30;;;28.90;35.80;;;;;;10313273;28;20277;-78
2022/08/19 18:22:40;;;;;;;14.98;7.70;;;28.80;37.50;;;;;;10314257;28;20195;-77
2022/08/19 18:28:01;;;;;;;16.50;7.88;;;28.70;39.40;;;;;;10314063;28;20198;-77
2022/08/19 18:33:24;;;;;;;12.25;7.80;;;28.70;40.90;;;;;;10393574;28;20291;-77
2022/08/19 18:50:08;;;;;;;11.38;7.63;;;28.60;99.90;;;;;;10402254;28;20200;-78
2022/08/19 18:55:29;;;;;;;14.68;7.88;;;28.60;1.00;;;;;;10352516;28;20421;-77
2022/08/19 19:00:54;;;;;;;12.13;8.30;;;28.50;1.00;;;;;;10359649;28;20197;-77
2022/08/19 19:06:19;;;;;;;8.43;6.82;;;28.50;1.00;;;;;;10329591;28;20195;-77
2022/08/19 19:11:44;;;;;;;12.52;7.45;;;28.50;1.00;;;;;;10319866;28;20375;-78
2022/08/19 19:17:10;;;;;;;8.32;7.53;;;28.50;1.00;;;;;;10334985;28;20608;-77
2022/08/19 19:22:31;;;;;;;13.50;8.48;;;28.40;1.00;;;;;;10318995;28;20435;-77
2022/08/19 19:27:53;;;;;;;16.95;8.73;;;28.40;1.00;;;;;;10319643;28;20198;-78
2022/08/19 19:33:15;;;;;;;11.88;8.48;;;28.30;1.00;;;;;;10390337;28;20239;-77
2022/08/19 19:38:36;;;;;;;12.20;7.03;;;28.30;1.00;;;;;;10382617;28;20557;-77
2022/08/19 19:43:59;;;;;;;12.00;8.73;;;28.30;1.00;;;;;;10370496;28;20188;-76
2022/08/19 19:49:36;;;;;;;8.60;7.10;;;28.30;1.00;;;;;;10399779;28;20437;-77
2022/08/19 19:55:05;;;;;;;8.90;7.15;;;28.30;1.00;;;;;;10353541;28;20543;-77
2022/08/19 20:00:28;;;;;;;11.48;7.88;;;28.30;1.00;;;;;;10357500;28;20225;-77
2022/08/19 20:05:51;;;;;;;11.80;8.57;;;28.20;1.00;;;;;;10333055;28;20191;-78
2022/08/19 20:11:23;;;;;;;12.38;8.88;;;28.10;1.00;;;;;;10332671;28;20202;-77
2022/08/19 20:16:47;;;;;;;11.88;8.57;;;28.10;1.00;;;;;;10317702;28;20230;-77
2022/08/19 20:22:09;;;;;;;13.70;8.95;;;28.00;1.00;;;;;;10317498;28;20195;-77
2022/08/19 20:27:32;;;;;;;15.73;8.25;;;28.00;1.00;;;;;;10317296;28;20249;-78
2022/08/19 20:32:55;;;;;;;10.23;8.07;;;27.90;1.00;;;;;;10382613;28;20255;-77
2022/08/19 20:38:16;;;;;;;8.60;7.70;;;27.90;1.00;;;;;;10380155;28;20225;-79
2022/08/19 20:43:38;;;;;;;11.18;9.57;;;27.90;1.00;;;;;;10397554;28;20193;-78
2022/08/19 20:49:00;;;;;;;10.43;8.25;;;27.80;1.00;;;;;;10397662;28;20189;-77
2022/08/19 20:54:21;;;;;;;13.90;9.07;;;27.70;1.00;;;;;;10342191;28;20197;-77
2022/08/19 20:59:42;;;;;;;14.85;9.35;;;27.70;1.00;;;;;;10325553;28;20198;-77
2022/08/19 21:05:05;;;;;;;13.52;10.20;;;27.60;1.00;;;;;;10303732;28;20202;-78
2022/08/19 21:10:26;;;;;;;12.82;9.82;;;27.50;1.00;;;;;;10314767;28;20237;-77
2022/08/19 21:15:48;;;;;;;11.75;10.05;;;27.50;1.00;;;;;;10315760;28;20217;-78
2022/08/19 21:21:10;;;;;;;13.38;10.93;;;27.40;1.00;;;;;;10315579;28;20237;-77
2022/08/19 21:26:31;;;;;;;13.18;10.70;;;27.30;1.00;;;;;;10314406;28;20198;-77
2022/08/19 21:31:52;;;;;;;15.23;11.05;;;27.30;1.00;;;;;;10363834;28;20307;-78
2022/08/19 21:37:14;;;;;;;14.98;10.77;;;27.20;95.90;;;;;;10381151;28;20216;-77
2022/08/19 21:42:36;;;;;;;12.15;10.63;;;27.10;99.90;;;;;;10381302;28;20264;-77
2022/08/19 21:47:58;;;;;;;13.93;11.60;;;27.00;99.90;;;;;;10395905;28;20496;-77
2022/08/19 21:53:19;;;;;;;14.15;11.25;;;26.90;1.00;;;;;;10364116;28;20198;-77
2022/08/19 21:58:40;;;;;;;12.75;11.30;;;26.80;1.00;;;;;;10353600;28;20229;-77
2022/08/19 22:04:02;;;;;;;15.35;11.18;;;26.70;1.00;;;;;;10310845;28;20802;-78
2022/08/19 22:09:23;;;;;;;13.48;11.18;;;26.60;99.90;;;;;;10322340;28;20210;-77
2022/08/19 22:14:44;;;;;;;14.77;11.60;;;26.50;1.00;;;;;;10337661;28;20269;-77
2022/08/19 22:20:09;;;;;;;12.65;11.35;;;26.50;1.00;;;;;;10321509;28;20198;-77
2022/08/19 22:25:36;;;;;;;13.65;11.60;;;26.50;1.00;;;;;;10307660;28;20253;-76
2022/08/19 22:30:57;;;;;;;13.70;12.25;;;26.40;99.90;;;;;;10370923;28;20543;-78
2022/08/19 22:36:19;;;;;;;14.77;11.60;;;26.40;99.90;;;;;;10402618;28;20216;-77
2022/08/19 22:41:40;;;;;;;16.92;13.25;;;26.40;1.00;;;;;;10402447;28;20243;-77
2022/08/19 22:47:01;;;;;;;16.48;14.70;;;26.20;99.90;;;;;;10384677;28;20201;-77
2022/08/19 22:52:22;;;;;;;17.65;14.27;;;26.20;1.00;;;;;;10385031;28;20273;-77
2022/08/19 22:57:43;;;;;;;22.58;16.38;;;26.10;1.00;;;;;;10356696;28;20528;-77
2022/08/19 23:03:05;;;;;;;18.80;15.60;;;26.00;99.90;;;;;;10355432;28;20186;-77
2022/08/19 23:08:27;;;;;;;16.77;14.55;;;25.90;1.00;;;;;;10335595;28;20202;-77
2022/08/19 23:13:48;;;;;;;15.63;14.02;;;25.90;99.90;;;;;;10320364;28;20202;-76
2022/08/19 23:19:10;;;;;;;18.23;14.70;;;25.90;99.90;;;;;;10318593;28;20222;-77
2022/08/19 23:24:31;;;;;;;15.85;13.95;;;25.90;1.00;;;;;;10320093;28;20542;-76
2022/08/19 23:35:35;;;;;;;19.83;16.23;;;25.90;1.00;;;;;;10382698;28;20531;-77
2022/08/19 23:40:59;;;;;;;18.75;16.90;;;25.60;99.90;;;;;;10400417;28;20193;-76
2022/08/19 23:46:21;;;;;;;20.13;16.83;;;25.60;99.90;;;;;;10399788;28;20223;-76
2022/08/19 23:51:42;;;;;;;20.40;18.23;;;25.50;1.00;;;;;;10393770;28;20194;-77
2022/08/19 23:57:04;;;;;;;24.27;20.00;;;25.40;1.00;;;;;;10348254;28;20229;-76
